createdAt,value
2022-10-24T00:00:40.173Z,17.60
2022-10-24T00:02:42.024Z,17.70
2022-10-24T00:04:43.660Z,17.70
2022-10-24T00:06:45.281Z,17.70
2022-10-24T00:08:47.297Z,17.60
2022-10-24T00:10:49.324Z,17.60
2022-10-24T00:12:51.163Z,17.60
2022-10-24T00:14:52.798Z,17.60
2022-10-24T00:16:54.441Z,17.60
2022-10-24T00:18:56.116Z,17.60
2022-10-24T00:20:57.776Z,17.60
2022-10-24T00:22:59.374Z,17.60
2022-10-24T00:25:01.030Z,17.60
2022-10-24T00:27:02.707Z,17.60
2022-10-24T00:29:04.939Z,17.50
2022-10-24T00:31:07.544Z,17.50
2022-10-24T00:33:09.156Z,17.50
2022-10-24T00:35:11.150Z,17.50
2022-10-24T00:37:12.818Z,17.50
2022-10-24T00:39:14.506Z,17.50
2022-10-24T00:41:18.267Z,17.50
2022-10-24T00:43:21.568Z,17.40
2022-10-24T00:45:42.192Z,17.40
2022-10-24T00:47:43.879Z,17.30
2022-10-24T00:49:48.370Z,17.20
2022-10-24T00:51:51.908Z,17.10
2022-10-24T00:54:01.646Z,17.00
2022-10-24T00:56:05.197Z,16.90
2022-10-24T00:58:08.165Z,16.80
2022-10-24T01:00:11.818Z,16.70
2022-10-24T01:04:20.098Z,16.50
2022-10-24T01:06:40.475Z,16.50
2022-10-24T01:08:45.642Z,16.40
2022-10-24T01:10:50.261Z,16.30
2022-10-24T01:13:10.291Z,16.30
2022-10-24T01:15:37.844Z,16.20
2022-10-24T01:17:43.844Z,16.20
2022-10-24T01:19:45.428Z,16.10
2022-10-24T01:21:53.253Z,16.10
2022-10-24T01:24:02.727Z,16.00
2022-10-24T01:26:23.130Z,16.00
2022-10-24T01:28:28.286Z,15.90
2022-10-24T01:30:32.552Z,15.90
2022-10-24T01:32:37.039Z,15.90
2022-10-24T01:34:42.270Z,15.80
2022-10-24T01:36:47.983Z,15.80
2022-10-24T01:38:54.940Z,15.70
2022-10-24T01:41:02.350Z,15.70
2022-10-24T01:43:08.181Z,15.60
2022-10-24T01:45:11.188Z,15.60
2022-10-24T01:47:16.524Z,15.60
2022-10-24T01:49:20.095Z,15.60
2022-10-24T01:51:23.436Z,15.50
2022-10-24T01:53:26.238Z,15.50
2022-10-24T01:55:28.329Z,15.50
2022-10-24T01:57:30.782Z,15.40
2022-10-24T01:59:32.394Z,15.40
2022-10-24T02:01:35.251Z,15.40
2022-10-24T02:03:38.424Z,15.40
2022-10-24T02:05:42.967Z,15.30
2022-10-24T02:07:46.504Z,15.30
2022-10-24T02:09:50.904Z,15.30
2022-10-24T02:11:52.988Z,15.30
2022-10-24T02:14:05.202Z,15.30
2022-10-24T02:16:06.964Z,15.30
2022-10-24T02:18:08.982Z,15.30
2022-10-24T02:20:10.996Z,15.30
2022-10-24T02:22:20.870Z,15.30
2022-10-24T02:24:28.548Z,15.20
2022-10-24T02:26:34.757Z,15.20
2022-10-24T02:28:40.326Z,15.20
2022-10-24T02:30:48.084Z,15.20
2022-10-24T02:32:55.031Z,15.10
2022-10-24T02:34:57.961Z,15.20
2022-10-24T02:37:01.324Z,15.10
2022-10-24T02:39:05.419Z,15.10
2022-10-24T02:41:09.510Z,15.10
2022-10-24T02:43:12.767Z,15.10
2022-10-24T02:45:14.985Z,15.10
2022-10-24T02:47:18.031Z,15.00
2022-10-24T02:49:19.682Z,15.00
2022-10-24T02:51:22.066Z,15.00
2022-10-24T02:53:24.811Z,15.00
2022-10-24T02:55:26.527Z,15.00
2022-10-24T02:57:28.389Z,15.00
2022-10-24T02:59:30.360Z,15.00
2022-10-24T03:01:32.039Z,14.90
2022-10-24T03:03:33.738Z,14.90
2022-10-24T03:05:35.356Z,15.00
2022-10-24T03:07:37.043Z,14.90
2022-10-24T03:09:38.692Z,14.90
2022-10-24T03:11:40.696Z,14.90
2022-10-24T03:13:42.320Z,15.00
2022-10-24T03:15:44.054Z,14.90
2022-10-24T03:17:49.139Z,14.90
2022-10-24T03:19:50.802Z,14.90
2022-10-24T03:21:52.467Z,14.90
2022-10-24T03:23:54.138Z,14.90
2022-10-24T03:25:56.694Z,14.90
2022-10-24T03:27:58.387Z,14.90
2022-10-24T03:30:01.121Z,14.90
2022-10-24T03:32:03.093Z,14.90
2022-10-24T03:34:04.719Z,14.90
2022-10-24T03:36:06.741Z,14.90
2022-10-24T03:38:08.667Z,14.90
2022-10-24T03:40:10.640Z,14.90
2022-10-24T03:42:12.265Z,14.90
2022-10-24T03:44:13.924Z,14.90
2022-10-24T03:46:15.512Z,14.90
2022-10-24T03:48:17.226Z,14.90
2022-10-24T03:50:19.019Z,14.90
2022-10-24T03:52:20.637Z,14.90
2022-10-24T03:54:22.286Z,14.90
2022-10-24T03:56:23.939Z,14.90
2022-10-24T03:58:25.654Z,14.90
2022-10-24T04:00:28.998Z,14.90
2022-10-24T04:02:30.670Z,14.90
2022-10-24T04:04:32.494Z,14.90
2022-10-24T04:06:36.472Z,14.90
2022-10-24T04:08:38.528Z,14.90
2022-10-24T04:10:40.164Z,14.90
2022-10-24T04:12:41.799Z,14.90
2022-10-24T04:14:43.425Z,14.90
2022-10-24T04:16:45.031Z,14.90
2022-10-24T04:18:46.694Z,14.90
2022-10-24T04:20:48.390Z,14.80
2022-10-24T04:22:50.591Z,14.90
2022-10-24T04:24:52.253Z,14.90
2022-10-24T04:26:53.899Z,14.90
2022-10-24T04:28:55.540Z,14.90
2022-10-24T04:30:57.383Z,14.90
2022-10-24T04:32:59.022Z,14.90
2022-10-24T04:35:01.479Z,14.90
2022-10-24T04:37:03.210Z,14.90
2022-10-24T04:39:04.978Z,14.90
2022-10-24T04:41:09.784Z,14.90
2022-10-24T04:43:13.868Z,14.90
2022-10-24T04:45:15.605Z,14.90
2022-10-24T04:47:17.352Z,14.90
2022-10-24T04:49:19.111Z,14.90
2022-10-24T04:51:22.461Z,14.90
2022-10-24T04:53:24.501Z,14.90
2022-10-24T04:55:26.201Z,14.90
2022-10-24T04:57:27.835Z,14.90
2022-10-24T04:59:29.554Z,14.90
2022-10-24T05:01:31.261Z,14.90
2022-10-24T05:03:33.031Z,14.90
2022-10-24T05:05:34.656Z,14.90
2022-10-24T05:07:36.985Z,14.90
2022-10-24T05:09:38.644Z,14.90
2022-10-24T05:11:40.298Z,14.90
2022-10-24T05:13:42.345Z,14.90
2022-10-24T05:15:43.990Z,14.90
2022-10-24T05:17:45.651Z,14.90
2022-10-24T05:19:47.315Z,14.90
2022-10-24T05:21:49.030Z,14.90
2022-10-24T05:23:50.680Z,14.90
2022-10-24T05:25:52.454Z,15.00
2022-10-24T05:27:54.108Z,15.00
2022-10-24T05:29:55.759Z,14.90
2022-10-24T05:31:57.391Z,14.90
2022-10-24T05:33:59.013Z,14.90
2022-10-24T05:36:00.643Z,14.90
2022-10-24T05:38:02.629Z,14.90
2022-10-24T05:40:05.479Z,14.90
2022-10-24T05:42:07.424Z,14.90
2022-10-24T05:44:09.526Z,14.90
2022-10-24T05:46:11.134Z,14.90
2022-10-24T05:48:12.789Z,14.90
2022-10-24T05:50:14.655Z,14.90
2022-10-24T05:52:16.298Z,14.90
2022-10-24T05:54:17.939Z,15.00
2022-10-24T05:56:19.574Z,14.90
2022-10-24T05:58:22.335Z,14.90
2022-10-24T06:00:23.987Z,14.90
2022-10-24T06:02:25.668Z,14.90
2022-10-24T06:04:27.433Z,14.90
2022-10-24T06:06:29.073Z,14.90
2022-10-24T06:08:30.704Z,14.90
2022-10-24T06:10:32.319Z,14.90
2022-10-24T06:12:36.092Z,14.90
2022-10-24T06:14:38.351Z,14.90
2022-10-24T06:16:40.041Z,14.90
2022-10-24T06:18:41.716Z,14.90
2022-10-24T06:20:43.387Z,14.90
2022-10-24T06:22:47.895Z,14.90
2022-10-24T06:24:49.583Z,14.90
2022-10-24T06:26:51.723Z,14.90
2022-10-24T06:28:54.691Z,14.90
2022-10-24T06:30:56.384Z,14.90
2022-10-24T06:32:58.019Z,14.90
2022-10-24T06:34:59.687Z,14.90
2022-10-24T06:37:01.364Z,14.90
2022-10-24T06:39:03.150Z,14.90
2022-10-24T06:41:05.669Z,14.90
2022-10-24T06:43:07.286Z,14.80
2022-10-24T06:45:09.065Z,14.80
2022-10-24T06:47:10.726Z,14.80
2022-10-24T06:49:13.256Z,14.80
2022-10-24T06:51:15.918Z,14.80
2022-10-24T06:53:17.612Z,14.80
2022-10-24T06:55:19.552Z,14.80
2022-10-24T06:57:21.158Z,14.80
2022-10-24T06:59:22.783Z,14.80
2022-10-24T07:01:25.874Z,14.80
2022-10-24T07:03:27.656Z,14.90
2022-10-24T07:05:29.312Z,14.90
2022-10-24T07:07:30.969Z,14.90
2022-10-24T07:09:32.644Z,14.90
2022-10-24T07:11:34.478Z,14.90
2022-10-24T07:13:36.447Z,14.90
2022-10-24T07:15:38.130Z,14.90
2022-10-24T07:17:40.745Z,14.90
2022-10-24T07:19:42.436Z,14.90
2022-10-24T07:21:44.096Z,14.90
2022-10-24T07:23:45.936Z,14.90
2022-10-24T07:25:47.655Z,14.90
2022-10-24T07:27:52.546Z,14.90
2022-10-24T07:29:54.263Z,14.90
2022-10-24T07:31:57.035Z,14.90
2022-10-24T07:33:59.592Z,14.90
2022-10-24T07:36:01.246Z,14.90
2022-10-24T07:38:02.867Z,14.90
2022-10-24T07:40:04.816Z,15.00
2022-10-24T07:42:06.701Z,15.00
2022-10-24T07:44:08.446Z,15.00
2022-10-24T07:46:11.190Z,15.00
2022-10-24T07:48:12.810Z,15.00
2022-10-24T07:50:17.217Z,15.00
2022-10-24T07:52:18.873Z,15.00
2022-10-24T07:56:27.102Z,15.00
2022-10-24T07:58:28.886Z,15.00
2022-10-24T08:00:30.555Z,15.00
2022-10-24T08:02:33.010Z,15.10
2022-10-24T08:04:34.645Z,15.10
2022-10-24T08:06:36.340Z,15.10
2022-10-24T08:08:38.700Z,15.10
2022-10-24T08:10:40.657Z,15.10
2022-10-24T08:12:42.512Z,15.10
2022-10-24T08:14:44.455Z,15.10
2022-10-24T08:16:46.086Z,15.10
2022-10-24T08:18:47.869Z,15.10
2022-10-24T08:21:15.864Z,15.10
2022-10-24T08:23:19.958Z,15.10
2022-10-24T08:25:24.867Z,15.10
2022-10-24T08:27:26.505Z,15.10
2022-10-24T08:29:28.198Z,15.10
2022-10-24T08:31:29.938Z,15.10
2022-10-24T08:33:31.959Z,15.10
2022-10-24T08:35:33.741Z,15.10
2022-10-24T08:39:39.569Z,15.20
2022-10-24T08:41:47.079Z,15.20
2022-10-24T08:43:48.810Z,15.20
2022-10-24T08:46:02.658Z,15.20
2022-10-24T08:48:04.252Z,15.20
2022-10-24T08:50:11.925Z,15.30
2022-10-24T08:52:29.052Z,15.30
2022-10-24T08:54:34.205Z,15.30
2022-10-24T08:56:35.964Z,15.30
2022-10-24T08:58:40.743Z,15.30
2022-10-24T09:00:44.032Z,15.30
2022-10-24T09:02:49.782Z,15.30
2022-10-24T09:04:56.203Z,15.30
2022-10-24T09:06:57.941Z,15.30
2022-10-24T09:09:04.862Z,15.30
2022-10-24T09:11:07.234Z,15.30
2022-10-24T09:13:15.075Z,15.30
2022-10-24T09:15:28.494Z,15.40
2022-10-24T09:17:32.684Z,15.40
2022-10-24T09:19:34.318Z,15.40
2022-10-24T09:21:36.020Z,15.50
2022-10-24T09:23:37.843Z,15.50
2022-10-24T09:25:41.417Z,15.50
2022-10-24T09:27:43.391Z,15.50
2022-10-24T09:29:45.307Z,15.50
2022-10-24T09:31:49.437Z,15.60
2022-10-24T09:33:56.562Z,15.50
2022-10-24T09:35:59.860Z,15.60
2022-10-24T09:38:34.150Z,15.60
2022-10-24T09:40:37.731Z,15.70
2022-10-24T09:42:40.626Z,15.70
2022-10-24T09:44:43.789Z,15.70
2022-10-24T09:46:47.709Z,15.80
2022-10-24T09:48:52.051Z,15.80
2022-10-24T09:50:53.974Z,15.80
2022-10-24T09:52:57.392Z,15.90
2022-10-24T09:55:10.026Z,15.90
2022-10-24T09:57:11.764Z,15.90
2022-10-24T09:59:32.349Z,15.90
2022-10-24T10:01:34.061Z,16.00
2022-10-24T10:03:35.840Z,16.00
2022-10-24T10:05:45.153Z,16.00
2022-10-24T10:07:48.694Z,16.00
2022-10-24T10:09:56.482Z,16.00
2022-10-24T10:12:02.962Z,16.10
2022-10-24T10:14:05.188Z,16.10
2022-10-24T10:16:09.236Z,16.10
2022-10-24T10:18:24.620Z,16.10
2022-10-24T10:20:28.838Z,16.10
2022-10-24T10:22:31.961Z,16.10
2022-10-24T10:24:41.461Z,16.10
2022-10-24T10:26:44.232Z,16.10
2022-10-24T10:28:51.962Z,16.10
2022-10-24T10:30:55.858Z,16.10
2022-10-24T10:32:57.475Z,16.10
2022-10-24T10:35:06.960Z,16.10
2022-10-24T10:37:14.654Z,16.00
2022-10-24T10:39:24.972Z,16.00
2022-10-24T10:41:26.618Z,16.00
2022-10-24T10:43:37.273Z,16.00
2022-10-24T10:45:42.092Z,16.00
2022-10-24T10:47:53.396Z,16.00
2022-10-24T10:49:57.660Z,16.00
2022-10-24T10:52:17.889Z,16.00
2022-10-24T10:54:19.524Z,16.00
2022-10-24T10:56:21.172Z,16.00
2022-10-24T10:58:22.767Z,16.00
2022-10-24T11:00:27.049Z,16.00
2022-10-24T11:02:41.590Z,16.00
2022-10-24T11:04:47.163Z,16.00
2022-10-24T11:06:51.610Z,16.00
2022-10-24T11:09:11.992Z,16.00
2022-10-24T11:11:17.465Z,16.00
2022-10-24T11:13:23.636Z,15.90
2022-10-24T11:15:30.460Z,15.90
2022-10-24T11:17:38.086Z,15.90
2022-10-24T11:19:39.792Z,15.90
2022-10-24T11:21:41.731Z,15.90
2022-10-24T11:23:49.247Z,15.90
2022-10-24T11:26:05.790Z,15.80
2022-10-24T11:28:12.449Z,15.80
2022-10-24T11:30:18.775Z,15.80
2022-10-24T11:32:38.836Z,15.80
2022-10-24T11:34:42.428Z,15.80
2022-10-24T11:36:53.365Z,15.80
2022-10-24T11:39:00.967Z,15.80
2022-10-24T11:41:26.287Z,15.80
2022-10-24T11:43:30.573Z,15.70
2022-10-24T11:45:50.526Z,15.70
2022-10-24T11:48:13.372Z,15.60
2022-10-24T11:50:24.723Z,15.60
2022-10-24T11:52:28.966Z,15.50
2022-10-24T11:54:53.870Z,15.50
2022-10-24T11:56:58.708Z,15.50
2022-10-24T11:59:02.270Z,15.50
2022-10-24T12:01:10.193Z,15.50
2022-10-24T12:03:26.468Z,15.50
2022-10-24T12:05:28.628Z,15.40
2022-10-24T12:07:30.553Z,15.40
2022-10-24T12:09:34.346Z,15.40
2022-10-24T12:11:45.435Z,15.30
2022-10-24T12:13:56.211Z,15.30
2022-10-24T12:16:07.270Z,15.30
2022-10-24T12:18:26.613Z,15.30
2022-10-24T12:20:28.623Z,15.20
2022-10-24T12:22:33.787Z,15.10
2022-10-24T12:24:38.761Z,15.10
2022-10-24T12:26:43.402Z,15.10
2022-10-24T12:28:58.345Z,15.10
2022-10-24T12:31:10.800Z,15.10
2022-10-24T12:33:23.744Z,15.00
2022-10-24T12:35:31.370Z,15.00
2022-10-24T12:37:34.398Z,15.00
2022-10-24T12:39:37.971Z,15.00
2022-10-24T12:41:39.867Z,14.90
2022-10-24T12:43:43.239Z,15.00
2022-10-24T12:45:44.917Z,14.90
2022-10-24T12:47:52.840Z,14.90
2022-10-24T12:49:54.889Z,14.90
2022-10-24T12:51:57.385Z,15.00
2022-10-24T12:54:05.293Z,14.90
2022-10-24T12:56:09.582Z,14.90
2022-10-24T12:58:30.495Z,14.90
2022-10-24T13:00:33.700Z,14.90
2022-10-24T13:02:47.658Z,14.90
2022-10-24T13:04:59.992Z,14.90
2022-10-24T13:07:11.277Z,14.90
2022-10-24T13:09:18.896Z,14.90
2022-10-24T13:11:29.770Z,14.90
2022-10-24T13:13:31.376Z,14.90
2022-10-24T13:15:36.091Z,14.90
2022-10-24T13:17:44.204Z,14.90
2022-10-24T13:19:46.159Z,14.90
2022-10-24T13:21:55.239Z,14.90
2022-10-24T13:24:15.281Z,14.90
2022-10-24T13:26:35.229Z,14.90
2022-10-24T13:28:39.485Z,14.90
2022-10-24T13:30:42.089Z,14.90
2022-10-24T13:32:45.463Z,14.90
2022-10-24T13:34:50.307Z,14.90
2022-10-24T13:36:57.204Z,14.90
2022-10-24T13:39:00.690Z,14.90
2022-10-24T13:41:03.095Z,14.90
2022-10-24T13:43:12.619Z,14.90
2022-10-24T13:45:20.401Z,14.90
2022-10-24T13:47:28.171Z,14.80
2022-10-24T13:49:36.355Z,14.90
2022-10-24T13:51:43.257Z,14.80
2022-10-24T13:53:51.213Z,14.80
2022-10-24T13:55:53.347Z,14.80
2022-10-24T13:58:08.060Z,14.80
2022-10-24T14:00:18.508Z,14.80
2022-10-24T14:02:21.836Z,14.80
2022-10-24T14:04:24.306Z,14.80
2022-10-24T14:06:27.508Z,14.70
2022-10-24T14:08:36.153Z,14.70
2022-10-24T14:10:38.003Z,14.70
2022-10-24T14:12:40.552Z,14.70
2022-10-24T14:14:42.399Z,14.60
2022-10-24T14:16:44.020Z,14.60
2022-10-24T14:18:45.694Z,14.70
2022-10-24T14:20:54.430Z,14.70
2022-10-24T14:22:56.346Z,14.60
2022-10-24T14:24:58.065Z,14.60
2022-10-24T14:26:59.686Z,14.60
2022-10-24T14:29:01.379Z,14.60
2022-10-24T14:31:07.501Z,14.60
2022-10-24T14:33:15.165Z,14.50
2022-10-24T14:35:16.929Z,14.50
2022-10-24T14:37:27.078Z,14.50
2022-10-24T14:39:29.038Z,14.50
2022-10-24T14:41:32.176Z,14.50
2022-10-24T14:43:33.918Z,14.50
2022-10-24T14:45:35.583Z,14.50
2022-10-24T14:47:38.953Z,14.50
2022-10-24T14:49:40.570Z,14.40
2022-10-24T14:51:42.773Z,14.40
2022-10-24T14:53:45.030Z,14.40
2022-10-24T14:55:50.812Z,14.40
2022-10-24T14:57:53.332Z,14.40
2022-10-24T14:59:55.839Z,14.40
2022-10-24T15:02:17.708Z,14.40
2022-10-24T15:04:29.054Z,14.30
2022-10-24T15:06:36.568Z,14.30
2022-10-24T15:08:39.555Z,14.30
2022-10-24T15:10:42.837Z,14.30
2022-10-24T15:12:53.280Z,14.30
2022-10-24T15:14:56.607Z,14.30
2022-10-24T15:17:00.268Z,14.30
2022-10-24T15:19:04.038Z,14.30
2022-10-24T15:21:11.045Z,14.30
2022-10-24T15:23:27.421Z,14.30
2022-10-24T15:25:31.160Z,14.30
2022-10-24T15:27:43.224Z,14.20
2022-10-24T15:29:44.961Z,14.20
2022-10-24T15:31:48.233Z,14.20
2022-10-24T15:33:49.924Z,14.20
2022-10-24T15:35:51.576Z,14.10
2022-10-24T15:38:13.427Z,14.10
2022-10-24T15:40:17.707Z,14.10
2022-10-24T15:42:22.319Z,14.10
2022-10-24T15:44:26.608Z,14.10
2022-10-24T15:46:28.476Z,14.10
2022-10-24T15:48:30.103Z,14.00
2022-10-24T15:50:31.771Z,14.00
2022-10-24T15:52:33.440Z,14.00
2022-10-24T15:54:35.067Z,14.00
2022-10-24T15:56:36.713Z,13.90
2022-10-24T15:58:39.246Z,13.90
2022-10-24T16:00:41.294Z,13.90
2022-10-24T16:02:45.686Z,13.90
2022-10-24T16:04:47.729Z,13.90
2022-10-24T16:06:49.721Z,13.90
2022-10-24T16:08:51.487Z,13.90
2022-10-24T16:10:53.220Z,13.90
2022-10-24T16:12:54.854Z,13.90
2022-10-24T16:14:56.474Z,14.00
2022-10-24T16:16:58.586Z,13.90
2022-10-24T16:19:00.253Z,13.90
2022-10-24T16:21:02.017Z,13.90
2022-10-24T16:23:04.083Z,13.80
2022-10-24T16:25:05.949Z,13.80
2022-10-24T16:27:08.155Z,13.80
2022-10-24T16:29:10.231Z,13.80
2022-10-24T16:31:15.493Z,13.80
2022-10-24T16:33:20.058Z,13.70
2022-10-24T16:35:26.474Z,13.70
2022-10-24T16:37:28.111Z,13.70
2022-10-24T16:39:29.790Z,13.70
2022-10-24T16:41:31.465Z,13.70
2022-10-24T16:43:36.316Z,13.70
2022-10-24T16:45:39.460Z,13.70
2022-10-24T16:47:41.157Z,13.70
2022-10-24T16:49:45.399Z,13.70
2022-10-24T16:51:47.067Z,13.70
2022-10-24T16:53:48.713Z,13.70
2022-10-24T16:55:54.755Z,13.70
2022-10-24T16:57:56.547Z,13.70
2022-10-24T16:59:58.196Z,13.70
2022-10-24T17:02:00.018Z,13.60
2022-10-24T17:04:01.755Z,13.70
2022-10-24T17:06:04.193Z,13.60
2022-10-24T17:08:05.987Z,13.60
2022-10-24T17:10:08.178Z,13.60
2022-10-24T17:12:09.885Z,13.60
2022-10-24T17:14:13.946Z,13.60
2022-10-24T17:16:15.688Z,13.60
2022-10-24T17:18:19.976Z,13.60
2022-10-24T17:20:21.612Z,13.60
2022-10-24T17:22:23.514Z,13.60
2022-10-24T17:24:25.696Z,13.60
2022-10-24T17:26:28.004Z,13.60
2022-10-24T17:28:33.132Z,13.60
2022-10-24T17:30:35.177Z,13.60
2022-10-24T17:32:36.852Z,13.60
2022-10-24T17:34:39.040Z,13.60
2022-10-24T17:36:42.446Z,13.60
2022-10-24T17:38:49.088Z,13.60
2022-10-24T17:40:50.895Z,13.60
2022-10-24T17:42:52.616Z,13.60
2022-10-24T17:44:54.323Z,13.60
2022-10-24T17:46:58.371Z,13.60
2022-10-24T17:49:00.148Z,13.60
2022-10-24T17:51:02.212Z,13.60
2022-10-24T17:53:04.129Z,13.60
2022-10-24T17:55:44.640Z,13.60
2022-10-24T17:57:44.457Z,13.50
2022-10-24T17:59:46.196Z,13.60
2022-10-24T18:01:48.335Z,13.50
2022-10-24T18:03:50.480Z,13.60
2022-10-24T18:05:52.090Z,13.50
2022-10-24T18:07:54.210Z,13.50
2022-10-24T18:10:00.308Z,13.50
2022-10-24T18:12:02.873Z,13.60
2022-10-24T18:14:04.519Z,13.50
2022-10-24T18:16:14.186Z,13.50
2022-10-24T18:18:15.844Z,13.50
2022-10-24T18:20:18.505Z,13.50
2022-10-24T18:22:20.162Z,13.50
2022-10-24T18:24:21.844Z,13.50
2022-10-24T18:26:24.822Z,13.50
2022-10-24T18:28:26.425Z,13.50
2022-10-24T18:30:28.270Z,13.50
2022-10-24T18:32:29.921Z,13.50
2022-10-24T18:34:31.563Z,13.40
2022-10-24T18:36:33.280Z,13.40
2022-10-24T18:38:39.650Z,13.40
2022-10-24T18:40:41.458Z,13.40
2022-10-24T18:42:48.389Z,13.40
2022-10-24T18:44:51.407Z,13.40
2022-10-24T18:46:53.992Z,13.40
2022-10-24T18:48:55.876Z,13.40
2022-10-24T18:50:57.568Z,13.40
2022-10-24T18:53:04.051Z,13.40
2022-10-24T18:55:14.259Z,13.30
2022-10-24T18:57:22.391Z,13.30
2022-10-24T18:59:24.102Z,13.30
2022-10-24T19:01:41.957Z,13.30
2022-10-24T19:03:44.996Z,13.30
2022-10-24T19:05:58.698Z,13.30
2022-10-24T19:08:00.418Z,13.30
2022-10-24T19:10:02.165Z,13.30
2022-10-24T19:12:03.991Z,13.30
2022-10-24T19:14:05.717Z,13.20
2022-10-24T19:16:11.135Z,13.20
2022-10-24T19:18:15.174Z,13.20
2022-10-24T19:20:18.422Z,13.20
2022-10-24T19:22:20.067Z,13.20
2022-10-24T19:24:21.807Z,13.20
2022-10-24T19:26:23.549Z,13.20
2022-10-24T19:28:25.230Z,13.20
2022-10-24T19:30:26.892Z,13.20
2022-10-24T19:32:28.543Z,13.20
2022-10-24T19:34:30.934Z,13.20
2022-10-24T19:36:33.219Z,13.20
2022-10-24T19:38:34.819Z,13.20
2022-10-24T19:40:36.441Z,13.20
2022-10-24T19:42:38.164Z,13.20
2022-10-24T19:44:42.692Z,13.20
2022-10-24T19:46:44.384Z,13.20
2022-10-24T19:48:49.007Z,13.20
2022-10-24T19:50:51.428Z,13.20
2022-10-24T19:52:53.055Z,13.10
2022-10-24T19:54:54.702Z,13.10
2022-10-24T19:56:56.352Z,13.10
2022-10-24T19:58:57.994Z,13.10
2022-10-24T20:01:06.110Z,13.10
2022-10-24T20:03:08.198Z,13.10
2022-10-24T20:05:09.829Z,13.10
2022-10-24T20:07:11.527Z,13.10
2022-10-24T20:09:13.261Z,13.10
2022-10-24T20:11:20.437Z,13.10
2022-10-24T20:13:22.529Z,13.00
2022-10-24T20:15:24.191Z,13.10
2022-10-24T20:17:25.892Z,13.00
2022-10-24T20:19:27.680Z,13.00
2022-10-24T20:21:29.663Z,13.00
2022-10-24T20:23:31.804Z,13.00
2022-10-24T20:25:33.441Z,13.10
2022-10-24T20:27:38.658Z,13.00
2022-10-24T20:29:40.407Z,13.00
2022-10-24T20:31:46.287Z,13.00
2022-10-24T20:33:48.018Z,13.00
2022-10-24T20:35:49.628Z,13.00
2022-10-24T20:37:51.294Z,13.00
2022-10-24T20:39:52.936Z,13.00
2022-10-24T20:41:54.625Z,13.00
2022-10-24T20:43:56.570Z,13.00
2022-10-24T20:45:58.233Z,13.00
2022-10-24T20:48:00.940Z,13.00
2022-10-24T20:50:02.617Z,13.00
2022-10-24T20:52:04.440Z,13.00
2022-10-24T20:54:09.883Z,13.00
2022-10-24T20:56:12.501Z,13.00
2022-10-24T20:58:14.241Z,13.00
2022-10-24T21:00:15.989Z,12.90
2022-10-24T21:02:17.801Z,12.90
2022-10-24T21:04:20.932Z,12.90
2022-10-24T21:06:24.249Z,12.90
2022-10-24T21:08:25.893Z,12.90
2022-10-24T21:10:27.549Z,12.90
2022-10-24T21:12:30.095Z,12.80
2022-10-24T21:14:31.755Z,12.80
2022-10-24T21:16:33.799Z,12.80
2022-10-24T21:18:35.916Z,12.80
2022-10-24T21:20:37.585Z,12.80
2022-10-24T21:22:39.210Z,12.80
2022-10-24T21:24:40.873Z,12.80
2022-10-24T21:26:42.778Z,12.80
2022-10-24T21:28:44.646Z,12.80
2022-10-24T21:30:46.255Z,12.80
2022-10-24T21:32:47.941Z,12.70
2022-10-24T21:34:49.596Z,12.70
2022-10-24T21:36:51.266Z,12.80
2022-10-24T21:38:54.037Z,12.80
2022-10-24T21:41:09.376Z,12.80
2022-10-24T21:43:11.001Z,12.70
2022-10-24T21:45:12.669Z,12.80
2022-10-24T21:47:14.345Z,12.70
2022-10-24T21:49:16.048Z,12.70
2022-10-24T21:51:22.245Z,12.80
2022-10-24T21:53:25.301Z,12.60
2022-10-24T21:55:27.342Z,12.80
2022-10-24T21:57:30.154Z,12.80
2022-10-24T21:59:31.816Z,12.70
2022-10-24T22:01:35.586Z,12.80
2022-10-24T22:03:37.720Z,12.70
2022-10-24T22:05:39.512Z,12.70
2022-10-24T22:07:43.004Z,12.70
2022-10-24T22:09:46.832Z,12.70
2022-10-24T22:11:48.721Z,12.70
2022-10-24T22:13:51.369Z,12.70
2022-10-24T22:15:53.807Z,12.70
2022-10-24T22:17:55.542Z,12.70
2022-10-24T22:19:57.418Z,12.70
2022-10-24T22:21:59.202Z,12.70
2022-10-24T22:26:14.850Z,12.70
2022-10-24T22:28:17.054Z,12.70
2022-10-24T22:30:18.803Z,12.60
2022-10-24T22:32:20.714Z,12.70
2022-10-24T22:34:24.292Z,12.60
2022-10-24T22:36:29.073Z,12.60
2022-10-24T22:38:30.871Z,12.60
2022-10-24T22:40:32.799Z,12.60
2022-10-24T22:42:34.514Z,12.50
2022-10-24T22:44:36.697Z,12.50
2022-10-24T22:46:55.696Z,12.50
2022-10-24T22:48:59.267Z,12.40
2022-10-24T22:51:01.101Z,12.30
2022-10-24T22:53:03.181Z,12.30
2022-10-24T22:55:07.255Z,12.30
2022-10-24T22:57:11.244Z,12.30
2022-10-24T22:59:13.175Z,12.30
2022-10-24T23:01:33.561Z,12.20
2022-10-24T23:03:38.697Z,12.20
2022-10-24T23:06:06.999Z,12.20
2022-10-24T23:08:10.557Z,12.20
2022-10-24T23:10:14.079Z,12.10
2022-10-24T23:12:16.932Z,12.00
2022-10-24T23:14:19.012Z,12.00
2022-10-24T23:16:20.816Z,12.00
2022-10-24T23:18:22.741Z,12.00
2022-10-24T23:20:28.580Z,11.90
2022-10-24T23:22:31.477Z,11.90
2022-10-24T23:24:33.518Z,11.90
2022-10-24T23:26:46.676Z,11.90
2022-10-24T23:29:05.673Z,11.90
2022-10-24T23:31:07.767Z,11.80
2022-10-24T23:33:13.959Z,11.80
2022-10-24T23:35:16.707Z,11.80
2022-10-24T23:37:37.856Z,11.70
2022-10-24T23:39:39.766Z,11.70
2022-10-24T23:41:41.826Z,11.70
2022-10-24T23:43:43.693Z,11.60
2022-10-24T23:45:59.281Z,11.60
2022-10-24T23:48:12.015Z,11.50
2022-10-24T23:50:32.651Z,11.50
2022-10-24T23:52:37.544Z,11.40
2022-10-24T23:54:39.577Z,11.40
2022-10-24T23:56:41.534Z,11.40
2022-10-24T23:58:43.702Z,11.40
